Fidato — PB5970 — position and weather

sailwx.info

Track history (hours):
 
Tides and Currents Weather Stations Pressure Air Temp Water Temp Dewpoint Dewpoint Depression Visibility Wind Speed Wind Dir Waves Ship Positions

Fidato

Last reported at 2015-Jul-02 20:34 UTC. Time now 2015-Jul-02 21:30 UTC.
Position N 51°56' E 004°02'.

Length 135 m; draft 2.5 m.

Type: Ship. MMSI: 244670975.

Date/timePositionNaut miles runAvg speedWind from/ knotsBaromVisibWave heightAir tempDewpointWater temp
2015-Jul-02 20:34N 51°56' E 004°02'0 0.0
2015-Jul-02 19:33N 51°56' E 004°02'0 0.0
2015-Jul-02 18:34N 51°56' E 004°02'0 0.0
2015-Jul-02 17:33N 51°56' E 004°02'0 0.0
2015-Jul-02 16:34N 51°56' E 004°02'0 0.0
2015-Jul-02 15:33N 51°56' E 004°02'0 0.0
2015-Jul-02 14:34N 51°56' E 004°02'0 0.0
2015-Jul-02 13:33N 51°56' E 004°02'0 0.0
2015-Jul-02 12:34N 51°56' E 004°02'0 0.0
2015-Jul-02 11:34N 51°56' E 004°02'0 0.0
2015-Jul-02 10:34N 51°56' E 004°02'0 0.0
2015-Jul-02 09:34N 51°56' E 004°02'0 0.0
2015-Jul-02 08:33N 51°56' E 004°02'0 0.0
2015-Jul-02 07:34N 51°56' E 004°02'0 0.0
2015-Jul-02 06:34N 51°56' E 004°02'6 6.0
2015-Jul-02 05:34N 51°55' E 004°11'9 8.6
2015-Jul-02 04:34N 51°51' E 004°24'7 7.2
2015-Jul-02 03:33N 51°48' E 004°35'4 3.5
2015-Jul-02 02:34N 51°45' E 004°38'0 0.0
2015-Jul-02 01:34N 51°45' E 004°38'0 0.0
2015-Jul-02 00:34N 51°45' E 004°38'0 0.0
2015-Jul-01 23:34N 51°45' E 004°38'0 0.0
2015-Jul-01 22:34N 51°45' E 004°38'0 0.0
2015-Jul-01 21:34N 51°45' E 004°38'0 0.1
2015-Jul-01 20:34N 51°45' E 004°38'8 7.6
2015-Jul-01 19:33N 51°42' E 004°27'4 4.0
2015-Jul-01 18:28N 51°40' E 004°21'9 4.5
2015-Jul-01 16:31N 51°39' E 004°06'7 7.1
2015-Jul-01 15:29N 51°34' E 003°58'7 7.3
2015-Jul-01 14:30N 51°27' E 004°01'4 4.4
2015-Jul-01 13:33N 51°25' E 003°55'8 8.0
2015-Jul-01 12:33N 51°25' E 003°42'2 2.5
2015-Jul-01 11:34N 51°28' E 003°42'0 0.0
2015-Jul-01 10:33N 51°28' E 003°42'0 0.0
2015-Jul-01 09:34N 51°28' E 003°42'0 0.0
2015-Jul-01 08:33N 51°28' E 003°42'0 0.0
2015-Jul-01 07:33N 51°28' E 003°42'0 0.0
2015-Jul-01 06:33N 51°28' E 003°42'0 0.4
2015-Jul-01 05:34N 51°28' E 003°41'0 0.0
2015-Jul-01 04:33N 51°28' E 003°41'0 0.0
2015-Jul-01 03:34N 51°28' E 003°41'0 0.0
2015-Jul-01 02:33N 51°28' E 003°41'0 0.0
2015-Jul-01 01:34N 51°28' E 003°41'0 0.0
2015-Jul-01 00:33N 51°28' E 003°41'0 0.0
2015-Jun-30 23:33N 51°28' E 003°41'0 0.0
2015-Jun-30 22:33N 51°28' E 003°41'0 0.0
2015-Jun-30 21:33N 51°28' E 003°41'0 0.0
2015-Jun-30 20:33N 51°28' E 003°41'0 0.0
2015-Jun-30 19:33N 51°28' E 003°41'0 0.0
2015-Jun-30 18:33N 51°28' E 003°41'0 0.0
2015-Jun-30 17:33N 51°28' E 003°41'0 0.0
2015-Jun-30 16:33N 51°28' E 003°41'0 0.0
2015-Jun-30 15:33N 51°28' E 003°41'0 0.0
2015-Jun-30 14:33N 51°28' E 003°41'0 0.0
2015-Jun-30 13:33N 51°28' E 003°41'0 0.0
2015-Jun-30 12:33N 51°28' E 003°41'0 0.0
2015-Jun-30 11:33N 51°28' E 003°41'0 0.0
2015-Jun-30 10:33N 51°28' E 003°41'0 0.3
2015-Jun-30 09:33N 51°28' E 003°42'0 0.3
2015-Jun-30 08:33N 51°28' E 003°41'0 0.0
2015-Jun-30 07:33N 51°28' E 003°41'0 0.0
2015-Jun-30 06:33N 51°28' E 003°41'0 0.0
2015-Jun-30 05:33N 51°28' E 003°41'0 0.0
2015-Jun-30 04:33N 51°28' E 003°41'0 0.0
2015-Jun-30 03:33N 51°28' E 003°41'0 0.0
2015-Jun-30 02:33N 51°28' E 003°41'3 2.7
2015-Jun-30 01:33N 51°25' E 003°43'8 7.7
2015-Jun-30 00:33N 51°25' E 003°55'4 4.3
2015-Jun-29 23:33N 51°27' E 004°01'7 6.9
2015-Jun-29 22:33N 51°34' E 003°58'8 7.5
2015-Jun-29 21:33N 51°39' E 004°06'3 2.2
2015-Jun-29 20:19N 51°40' E 004°11'5 5.9
2015-Jun-29 19:29N 51°39' E 004°19'4 4.7
2015-Jun-29 18:33N 51°42' E 004°25'3 2.5
2015-Jun-29 17:32N 51°42' E 004°29'9 8.8
2015-Jun-29 16:33N 51°44' E 004°42'8 8.0
2015-Jun-29 15:33N 51°49' E 004°53'0 0.1
2015-Jun-29 14:33N 51°49' E 004°53'0 0.0
2015-Jun-29 13:33N 51°49' E 004°53'0 0.0
2015-Jun-29 12:33N 51°49' E 004°53'0 0.0
2015-Jun-29 11:33N 51°49' E 004°53'0 0.0
2015-Jun-29 10:33N 51°49' E 004°53'0 0.0
2015-Jun-29 09:33N 51°49' E 004°53'0 0.0
2015-Jun-29 08:28N 51°49' E 004°53'0 0.0
2015-Jun-29 07:12N 51°49' E 004°53'0 0.0
2015-Jun-29 06:09N 51°49' E 004°53'0 0.0
2015-Jun-29 05:32N 51°49' E 004°53'0 0.0
2015-Jun-29 04:30N 51°49' E 004°53'0 0.0
2015-Jun-29 03:33N 51°49' E 004°53'0 0.0
2015-Jun-29 02:33N 51°49' E 004°53'0 0.0
2015-Jun-29 01:31N 51°49' E 004°53'0 0.0
2015-Jun-29 00:33N 51°49' E 004°53'0 0.0
2015-Jun-28 23:33N 51°49' E 004°53'0 0.0
2015-Jun-28 22:33N 51°49' E 004°53'0 0.0
2015-Jun-28 21:33N 51°49' E 004°53'0 0.0
2015-Jun-28 20:31N 51°49' E 004°53'0 0.0
2015-Jun-28 19:32N 51°49' E 004°53'0 0.0
2015-Jun-28 18:33N 51°49' E 004°53'0 0.0
2015-Jun-28 17:33N 51°49' E 004°53'0 0.2
2015-Jun-28 16:24N 51°49' E 004°53'16 7.7
2015-Jun-28 14:21N 51°49' E 005°18'15 7.3
2015-Jun-28 12:17N 51°54' E 005°42'22 7.6
2015-Jun-28 09:27N 51°49' E 006°16'39 2.6
2015-Jun-27 18:10N 51°15' E 006°45'4 6.1
2015-Jun-27 17:33N 51°11' E 006°44'20 6.5
2015-Jun-27 14:29N 50°54' E 006°60'79 3.7
2015-Jun-26 17:21N 50°05' E 008°37'4 5.0
2015-Jun-26 16:33N 50°06' E 008°43'2 1.6
2015-Jun-26 15:33N 50°07' E 008°46'4 4.0
2015-Jun-26 14:33N 50°08' E 008°52'2 2.3
2015-Jun-26 13:33N 50°07' E 008°55'0 0.1
2015-Jun-26 12:33N 50°07' E 008°55'0 0.0
2015-Jun-26 11:33N 50°07' E 008°55'0 0.0
2015-Jun-26 10:33N 50°07' E 008°55'0 0.0
2015-Jun-26 09:33N 50°07' E 008°55'0 0.0
2015-Jun-26 08:33N 50°07' E 008°55'0 0.0
2015-Jun-26 07:33N 50°07' E 008°55'0 0.1
2015-Jun-26 06:33N 50°07' E 008°55'0 0.0
2015-Jun-26 05:33N 50°07' E 008°55'0 0.0
2015-Jun-26 04:33N 50°07' E 008°55'0 0.0
2015-Jun-26 03:33N 50°07' E 008°55'0 0.0
2015-Jun-26 02:33N 50°07' E 008°55'0 0.0
2015-Jun-26 01:33N 50°07' E 008°55'0 0.0
2015-Jun-26 00:33N 50°07' E 008°55'0 0.0
2015-Jun-25 23:33N 50°07' E 008°55'0 0.0
2015-Jun-25 22:33N 50°07' E 008°55'0 0.0
2015-Jun-25 21:33N 50°07' E 008°55'0 0.0
2015-Jun-25 20:33N 50°07' E 008°55'0 0.0
2015-Jun-25 19:33N 50°07' E 008°55'0 0.0
2015-Jun-25 18:33N 50°07' E 008°55'2 2.1
2015-Jun-25 17:33N 50°08' E 008°52'4 4.3
2015-Jun-25 16:33N 50°07' E 008°46'3 3.2
2015-Jun-25 15:33N 50°06' E 008°40'76 2.8
2015-Jun-24 12:21N 50°49' E 007°02'4 3.7
2015-Jun-24 11:19N 50°53' E 007°03'4 4.9
2015-Jun-24 10:29N 50°55' E 006°58'17 4.3
2015-Jun-24 06:33N 51°11' E 006°47'4 3.8
2015-Jun-24 05:33N 51°13' E 006°43'1 0.3
2015-Jun-24 03:33N 51°13' E 006°42'0 0.0
2015-Jun-24 02:33N 51°13' E 006°42'0 0.0
2015-Jun-24 01:33N 51°13' E 006°42'0 0.0
2015-Jun-24 00:34N 51°13' E 006°42'0 0.0
2015-Jun-23 23:33N 51°13' E 006°42'0 0.0
2015-Jun-23 22:34N 51°13' E 006°42'0 0.0
2015-Jun-23 21:34N 51°13' E 006°42'0 0.0
2015-Jun-23 20:33N 51°13' E 006°42'0 0.0
2015-Jun-23 19:01N 51°13' E 006°42'  
Track history (hours):
 
Tides and Currents Weather Stations Pressure Air Temp Water Temp Dewpoint Dewpoint Depression Visibility Wind Speed Wind Dir Waves Ship Positions

Fidato

Last reported at 2015-Jul-02 20:34 UTC. Time now 2015-Jul-02 21:30 UTC.
Position N 51°56' E 004°02'.

Length 135 m; draft 2.5 m.

Type: Ship. MMSI: 244670975.

Date/timePositionNaut miles runAvg speedWind from/ knotsBaromVisibWave heightAir tempDewpointWater temp
2015-Jul-02 20:34N 51°56' E 004°02'0 0.0
2015-Jul-02 19:33N 51°56' E 004°02'0 0.0
2015-Jul-02 18:34N 51°56' E 004°02'0 0.0
2015-Jul-02 17:33N 51°56' E 004°02'0 0.0
2015-Jul-02 16:34N 51°56' E 004°02'0 0.0
2015-Jul-02 15:33N 51°56' E 004°02'0 0.0
2015-Jul-02 14:34N 51°56' E 004°02'0 0.0
2015-Jul-02 13:33N 51°56' E 004°02'0 0.0
2015-Jul-02 12:34N 51°56' E 004°02'0 0.0
2015-Jul-02 11:34N 51°56' E 004°02'0 0.0
2015-Jul-02 10:34N 51°56' E 004°02'0 0.0
2015-Jul-02 09:34N 51°56' E 004°02'0 0.0
2015-Jul-02 08:33N 51°56' E 004°02'0 0.0
2015-Jul-02 07:34N 51°56' E 004°02'0 0.0
2015-Jul-02 06:34N 51°56' E 004°02'6 6.0
2015-Jul-02 05:34N 51°55' E 004°11'9 8.6
2015-Jul-02 04:34N 51°51' E 004°24'7 7.2
2015-Jul-02 03:33N 51°48' E 004°35'4 3.5
2015-Jul-02 02:34N 51°45' E 004°38'0 0.0
2015-Jul-02 01:34N 51°45' E 004°38'0 0.0
2015-Jul-02 00:34N 51°45' E 004°38'0 0.0
2015-Jul-01 23:34N 51°45' E 004°38'0 0.0
2015-Jul-01 22:34N 51°45' E 004°38'0 0.0
2015-Jul-01 21:34N 51°45' E 004°38'0 0.1
2015-Jul-01 20:34N 51°45' E 004°38'8 7.6
2015-Jul-01 19:33N 51°42' E 004°27'4 4.0
2015-Jul-01 18:28N 51°40' E 004°21'9 4.5
2015-Jul-01 16:31N 51°39' E 004°06'7 7.1
2015-Jul-01 15:29N 51°34' E 003°58'7 7.3
2015-Jul-01 14:30N 51°27' E 004°01'4 4.4
2015-Jul-01 13:33N 51°25' E 003°55'8 8.0
2015-Jul-01 12:33N 51°25' E 003°42'2 2.5
2015-Jul-01 11:34N 51°28' E 003°42'0 0.0
2015-Jul-01 10:33N 51°28' E 003°42'0 0.0
2015-Jul-01 09:34N 51°28' E 003°42'0 0.0
2015-Jul-01 08:33N 51°28' E 003°42'0 0.0
2015-Jul-01 07:33N 51°28' E 003°42'0 0.0
2015-Jul-01 06:33N 51°28' E 003°42'0 0.4
2015-Jul-01 05:34N 51°28' E 003°41'0 0.0
2015-Jul-01 04:33N 51°28' E 003°41'0 0.0
2015-Jul-01 03:34N 51°28' E 003°41'0 0.0
2015-Jul-01 02:33N 51°28' E 003°41'0 0.0
2015-Jul-01 01:34N 51°28' E 003°41'0 0.0
2015-Jul-01 00:33N 51°28' E 003°41'0 0.0
2015-Jun-30 23:33N 51°28' E 003°41'0 0.0
2015-Jun-30 22:33N 51°28' E 003°41'0 0.0
2015-Jun-30 21:33N 51°28' E 003°41'0 0.0
2015-Jun-30 20:33N 51°28' E 003°41'0 0.0
2015-Jun-30 19:33N 51°28' E 003°41'0 0.0
2015-Jun-30 18:33N 51°28' E 003°41'0 0.0
2015-Jun-30 17:33N 51°28' E 003°41'0 0.0
2015-Jun-30 16:33N 51°28' E 003°41'0 0.0
2015-Jun-30 15:33N 51°28' E 003°41'0 0.0
2015-Jun-30 14:33N 51°28' E 003°41'0 0.0
2015-Jun-30 13:33N 51°28' E 003°41'0 0.0
2015-Jun-30 12:33N 51°28' E 003°41'0 0.0
2015-Jun-30 11:33N 51°28' E 003°41'0 0.0
2015-Jun-30 10:33N 51°28' E 003°41'0 0.3
2015-Jun-30 09:33N 51°28' E 003°42'0 0.3
2015-Jun-30 08:33N 51°28' E 003°41'0 0.0
2015-Jun-30 07:33N 51°28' E 003°41'0 0.0
2015-Jun-30 06:33N 51°28' E 003°41'0 0.0
2015-Jun-30 05:33N 51°28' E 003°41'0 0.0
2015-Jun-30 04:33N 51°28' E 003°41'0 0.0
2015-Jun-30 03:33N 51°28' E 003°41'0 0.0
2015-Jun-30 02:33N 51°28' E 003°41'3 2.7
2015-Jun-30 01:33N 51°25' E 003°43'8 7.7
2015-Jun-30 00:33N 51°25' E 003°55'4 4.3
2015-Jun-29 23:33N 51°27' E 004°01'7 6.9
2015-Jun-29 22:33N 51°34' E 003°58'8 7.5
2015-Jun-29 21:33N 51°39' E 004°06'3 2.2
2015-Jun-29 20:19N 51°40' E 004°11'5 5.9
2015-Jun-29 19:29N 51°39' E 004°19'4 4.7
2015-Jun-29 18:33N 51°42' E 004°25'3 2.5
2015-Jun-29 17:32N 51°42' E 004°29'9 8.8
2015-Jun-29 16:33N 51°44' E 004°42'8 8.0
2015-Jun-29 15:33N 51°49' E 004°53'0 0.1
2015-Jun-29 14:33N 51°49' E 004°53'0 0.0
2015-Jun-29 13:33N 51°49' E 004°53'0 0.0
2015-Jun-29 12:33N 51°49' E 004°53'0 0.0
2015-Jun-29 11:33N 51°49' E 004°53'0 0.0
2015-Jun-29 10:33N 51°49' E 004°53'0 0.0
2015-Jun-29 09:33N 51°49' E 004°53'0 0.0
2015-Jun-29 08:28N 51°49' E 004°53'0 0.0
2015-Jun-29 07:12N 51°49' E 004°53'0 0.0
2015-Jun-29 06:09N 51°49' E 004°53'0 0.0
2015-Jun-29 05:32N 51°49' E 004°53'0 0.0
2015-Jun-29 04:30N 51°49' E 004°53'0 0.0
2015-Jun-29 03:33N 51°49' E 004°53'0 0.0
2015-Jun-29 02:33N 51°49' E 004°53'0 0.0
2015-Jun-29 01:31N 51°49' E 004°53'0 0.0
2015-Jun-29 00:33N 51°49' E 004°53'0 0.0
2015-Jun-28 23:33N 51°49' E 004°53'0 0.0
2015-Jun-28 22:33N 51°49' E 004°53'0 0.0
2015-Jun-28 21:33N 51°49' E 004°53'0 0.0
2015-Jun-28 20:31N 51°49' E 004°53'0 0.0
2015-Jun-28 19:32N 51°49' E 004°53'0 0.0
2015-Jun-28 18:33N 51°49' E 004°53'0 0.0
2015-Jun-28 17:33N 51°49' E 004°53'0 0.2
2015-Jun-28 16:24N 51°49' E 004°53'16 7.7
2015-Jun-28 14:21N 51°49' E 005°18'15 7.3
2015-Jun-28 12:17N 51°54' E 005°42'22 7.6
2015-Jun-28 09:27N 51°49' E 006°16'39 2.6
2015-Jun-27 18:10N 51°15' E 006°45'4 6.1
2015-Jun-27 17:33N 51°11' E 006°44'20 6.5
2015-Jun-27 14:29N 50°54' E 006°60'79 3.7
2015-Jun-26 17:21N 50°05' E 008°37'4 5.0
2015-Jun-26 16:33N 50°06' E 008°43'2 1.6
2015-Jun-26 15:33N 50°07' E 008°46'4 4.0
2015-Jun-26 14:33N 50°08' E 008°52'2 2.3
2015-Jun-26 13:33N 50°07' E 008°55'0 0.1
2015-Jun-26 12:33N 50°07' E 008°55'0 0.0
2015-Jun-26 11:33N 50°07' E 008°55'0 0.0
2015-Jun-26 10:33N 50°07' E 008°55'0 0.0
2015-Jun-26 09:33N 50°07' E 008°55'0 0.0
2015-Jun-26 08:33N 50°07' E 008°55'0 0.0
2015-Jun-26 07:33N 50°07' E 008°55'0 0.1
2015-Jun-26 06:33N 50°07' E 008°55'0 0.0
2015-Jun-26 05:33N 50°07' E 008°55'0 0.0
2015-Jun-26 04:33N 50°07' E 008°55'0 0.0
2015-Jun-26 03:33N 50°07' E 008°55'0 0.0
2015-Jun-26 02:33N 50°07' E 008°55'0 0.0
2015-Jun-26 01:33N 50°07' E 008°55'0 0.0
2015-Jun-26 00:33N 50°07' E 008°55'0 0.0
2015-Jun-25 23:33N 50°07' E 008°55'0 0.0
2015-Jun-25 22:33N 50°07' E 008°55'0 0.0
2015-Jun-25 21:33N 50°07' E 008°55'0 0.0
2015-Jun-25 20:33N 50°07' E 008°55'0 0.0
2015-Jun-25 19:33N 50°07' E 008°55'0 0.0
2015-Jun-25 18:33N 50°07' E 008°55'2 2.1
2015-Jun-25 17:33N 50°08' E 008°52'4 4.3
2015-Jun-25 16:33N 50°07' E 008°46'3 3.2
2015-Jun-25 15:33N 50°06' E 008°40'76 2.8
2015-Jun-24 12:21N 50°49' E 007°02'4 3.7
2015-Jun-24 11:19N 50°53' E 007°03'4 4.9
2015-Jun-24 10:29N 50°55' E 006°58'17 4.3
2015-Jun-24 06:33N 51°11' E 006°47'4 3.8
2015-Jun-24 05:33N 51°13' E 006°43'1 0.3
2015-Jun-24 03:33N 51°13' E 006°42'0 0.0
2015-Jun-24 02:33N 51°13' E 006°42'0 0.0
2015-Jun-24 01:33N 51°13' E 006°42'0 0.0
2015-Jun-24 00:34N 51°13' E 006°42'0 0.0
2015-Jun-23 23:33N 51°13' E 006°42'0 0.0
2015-Jun-23 22:34N 51°13' E 006°42'0 0.0
2015-Jun-23 21:34N 51°13' E 006°42'0 0.0
2015-Jun-23 20:33N 51°13' E 006°42'0 0.0
2015-Jun-23 19:01N 51°13' E 006°42'  

Dump ship's entire track history